createdAt,value
2023-02-14T00:14:20.052Z,6991.97083
2023-02-14T00:29:22.278Z,8155.6201
2023-02-14T00:44:24.721Z,7612.6434
2023-02-14T00:59:26.962Z,8045.48735
2023-02-14T01:14:29.360Z,7169.09485
2023-02-14T01:29:31.643Z,4122.3603
2023-02-14T01:44:33.903Z,3637.53263
2023-02-14T01:59:36.120Z,2556.45941
2023-02-14T02:14:38.384Z,2204.05035
2023-02-14T02:29:40.611Z,2235.38755
2023-02-14T02:44:42.830Z,1795.68578
2023-02-14T03:14:51.231Z,1559.22914
2023-02-14T03:29:53.475Z,1742.61133
2023-02-14T03:44:55.817Z,1741.53896
2023-02-14T03:59:58.250Z,1560.0887
2023-02-14T04:15:00.508Z,1566.1322
2023-02-14T04:30:02.878Z,1315.05627
2023-02-14T04:45:05.157Z,1524.78497
2023-02-14T05:00:07.519Z,1192.08138
2023-02-14T05:15:09.792Z,1224.04895
2023-02-14T05:30:12.581Z,1295.78805
2023-02-14T05:45:15.036Z,1532.21489
2023-02-14T06:00:17.295Z,1826.98565
2023-02-14T06:15:19.537Z,2056.68655
2023-02-14T06:30:21.892Z,2217.86884
2023-02-14T06:45:24.234Z,2396.27485
2023-02-14T07:00:26.627Z,2160.30585
2023-02-14T07:15:29.346Z,2108.79335
2023-02-14T07:30:31.686Z,1985.96541
2023-02-14T07:45:33.987Z,2210.93801
2023-02-14T08:00:36.282Z,2412.61773
2023-02-14T08:15:38.479Z,2478.10909
2023-02-14T08:30:40.799Z,2497.79398
2023-02-14T08:45:43.303Z,2452.3402
2023-02-14T09:00:45.628Z,2422.94572
2023-02-14T09:15:48.139Z,2495.59134
2023-02-14T09:30:52.233Z,2388.18616
2023-02-14T09:45:55.926Z,2418.80393
2023-02-14T10:00:58.733Z,2202.33514
2023-02-14T10:16:01.443Z,2022.87398
2023-02-14T10:31:04.024Z,1910.87153
2023-02-14T10:46:06.442Z,1973.5012
2023-02-14T11:01:08.821Z,1909.58214
2023-02-14T11:16:11.136Z,1927.79341
2023-02-14T11:31:13.511Z,1882.90136
2023-02-14T11:46:15.866Z,2105.65526
2023-02-14T12:01:18.193Z,2002.83136
2023-02-14T12:16:20.416Z,1856.95588
2023-02-14T12:31:22.713Z,1957.1236
2023-02-14T12:46:25.030Z,1912.16266
2023-02-14T13:01:28.797Z,1880.39917
2023-02-14T13:16:35.335Z,1622.70692
2023-02-14T13:31:37.783Z,1603.39993
2023-02-14T13:46:40.237Z,1248.89724
2023-02-14T14:01:42.574Z,1285.19578
2023-02-14T14:16:44.884Z,1286.36414
2023-02-14T14:31:47.300Z,1040.44168
2023-02-14T14:46:49.611Z,926.04762
2023-02-14T15:01:51.868Z,703.27733
2023-02-14T15:16:54.162Z,667.41618
2023-02-14T15:31:56.863Z,633.32775
2023-02-14T15:46:59.148Z,632.19478
2023-02-14T16:02:01.700Z,621.08416
2023-02-14T16:17:03.971Z,716.82931
2023-02-14T16:32:15.615Z,800.33986
2023-02-14T16:47:18.860Z,717.55706
2023-02-14T17:02:21.305Z,728.6533
2023-02-14T17:17:23.543Z,832.84335
2023-02-14T17:32:25.903Z,978.56205
2023-02-14T17:47:28.153Z,1250.00051
2023-02-14T18:02:30.382Z,1643.43836
2023-02-14T18:17:32.828Z,1828.16587
2023-02-14T18:32:35.066Z,1992.95825
2023-02-14T18:47:37.317Z,2190.40298
2023-02-14T19:02:39.563Z,2441.76065
2023-02-14T19:17:41.844Z,3039.7427
2023-02-14T19:32:44.088Z,3176.207
2023-02-14T19:47:47.512Z,2504.42529
2023-02-14T20:02:49.890Z,2520.03613
2023-02-14T20:17:52.157Z,2662.27709
2023-02-14T20:32:54.465Z,2864.373
2023-02-14T20:47:56.877Z,3267.89887
2023-02-14T21:02:59.483Z,3331.37188
2023-02-14T21:18:01.710Z,3555.27687
2023-02-14T21:33:04.002Z,3306.07525
2023-02-14T21:48:06.466Z,3393.28586
2023-02-14T22:03:08.706Z,3718.79156
2023-02-14T22:18:10.961Z,3821.74256
2023-02-14T22:33:13.195Z,4128.37395
2023-02-14T22:48:15.432Z,4538.89386
2023-02-14T23:03:17.644Z,3890.03486
2023-02-14T23:18:19.965Z,2563.40631
2023-02-14T23:33:22.238Z,1842.44841
2023-02-14T23:48:24.467Z,1799.11048
